Latest Weather Observations for Gannett Cay

IDQ60801

Issued at 2:02 am EST Monday 25 July 2016 (issued every 30 minutes, with the page automatically refreshed every 10 minutes)

About weather observations | Map of weather stations | Latest weather observations for QLD | Other Formats
Station Details ID: 200831 Name: GANNET CAY Lat: -21.98 Lon: 152.47 Height: 2.3 m
Data from the previous 72 hours. | See also: Recent months for locations in Queensland
Date/Time
EST
Temp
°C
App
Temp
°C
Dew
Point
°C
Rel
Hum
%
Delta-T
°C
Wind Press
QNH
hPa
Press
MSL
hPa
Rain since
9am
mm
Dir  Spd
km/h
Gust
km/h
Spd
kts
Gust
kts
25/02:00am 22.5 - - - - N 20 24 11 13 1015.1 - -
25/01:30am 22.6 - - - - N 19 20 10 11 1015.3 - -
25/01:29am 22.6 - - - - N 19 20 10 11 1015.3 1015.4 -
25/01:00am 22.6 - - - - NNE 15 17 8 9 1015.7 - -
25/12:30am 22.6 - - - - NNE 15 17 8 9 1015.8 - -
25/12:29am 22.5 - - - - NNE 15 - 8 - - 1015.9 -
25/12:00am 22.6 - - - - N 11 11 6 6 1016.1 - -
 
Date/Time
EST
Temp
°C
App
Temp
°C
Dew
Point
°C
Rel
Hum
%
Delta-T
°C
Wind Press
QNH
hPa
Press
MSL
hPa
Rain since
9am
mm
Dir  Spd
km/h
Gust
km/h
Spd
kts
Gust
kts
24/11:30pm 22.5 - - - - CALM 0 0 0 0 1016.1 - -
24/11:29pm 22.5 - - - - CALM 0 - 0 - - 1016.2 -
24/11:00pm 22.5 - - - - CALM 0 0 0 0 1016.2 - -
24/10:30pm 22.4 - - - - CALM 0 0 0 0 1016.1 - -
24/10:29pm 22.4 - - - - CALM 0 - 0 - - 1016.2 -
24/10:00pm 22.6 - - - - CALM 0 0 0 0 1016.1 - -
24/09:30pm 22.8 - - - - CALM 0 4 0 2 1016.0 - -
24/09:29pm 22.8 - - - - CALM 0 - 0 - - 1016.1 -
24/09:00pm 22.7 - - - - CALM 0 4 0 2 1015.8 - -
24/08:30pm 22.8 - - - - N 6 6 3 3 1015.6 - -
24/08:29pm 22.9 - - - - N 6 - 3 - - 1015.7 -
24/08:00pm 22.7 - - - - CALM 0 2 0 1 1015.5 - -
24/07:30pm 22.9 - - - - NNW 6 7 3 4 1015.2 - -
24/07:29pm 22.9 - - - - NNW 6 - 3 - - 1015.3 -
24/07:00pm 23.0 - - - - W 9 11 5 6 1015.1 - -
24/06:30pm 23.1 - - - - WSW 9 11 5 6 1014.8 - -
24/06:29pm 23.1 - - - - WSW 9 - 5 - - 1014.9 -
24/06:00pm 23.1 - - - - WSW 11 13 6 7 1014.4 - -
24/05:30pm 23.1 - - - - WSW 13 13 7 7 1014.1 - -
24/05:29pm 23.2 - - - - WSW 13 - 7 - - 1014.2 -
24/05:00pm 23.5 - - - - W 11 15 6 8 1013.9 - -
24/04:30pm 23.6 - - - - W 13 15 7 8 1013.6 - -
24/04:29pm 23.5 - - - - W 13 - 7 - - 1013.7 -
24/04:00pm 23.7 - - - - W 11 13 6 7 1013.5 - -
24/03:30pm 23.7 - - - - W 13 15 7 8 1013.4 - -
24/03:29pm 23.7 - - - - W 13 - 7 - - 1013.5 -
24/03:00pm 23.6 - - - - W 13 15 7 8 1013.5 - -
24/02:30pm 23.6 - - - - W 13 15 7 8 1013.6 - -
24/02:29pm 23.6 - - - - W 13 - 7 - - 1013.7 -
24/02:00pm 23.6 - - - - W 13 15 7 8 1013.9 - -
24/01:30pm 23.6 - - - - W 13 15 7 8 1014.1 - -
24/01:29pm 23.6 - - - - W 13 - 7 - - 1014.2 -
24/01:00pm 23.5 - - - - WNW 11 15 6 8 1014.4 - -
24/12:30pm 23.6 - - - - WNW 13 15 7 8 1014.8 - -
24/12:29pm 23.6 - - - - WNW 13 - 7 - - 1014.9 -
24/12:00pm 23.5 - - - - WNW 13 15 7 8 1015.2 - -
24/11:30am 23.5 - - - - WNW 15 17 8 9 1015.6 - -
24/11:29am 23.5 - - - - WNW 15 - 8 - - 1015.7 -
24/11:00am 23.5 - - - - WNW 13 15 7 8 1015.8 - -
24/10:30am 23.6 - - - - NW 15 17 8 9 1016.0 - -
24/10:29am 23.6 - - - - NW 15 - 8 - - 1016.1 -
24/10:00am 23.5 - - - - NW 15 19 8 10 1016.3 - -
24/09:30am 23.5 - - - - NW 17 19 9 10 1016.4 - -
24/09:29am 23.4 - - - - NW 17 - 9 - - 1016.5 -
24/09:00am 23.4 - - - - NNW 19 20 10 11 1016.2 - -
24/08:30am 23.4 - - - - NNW 20 22 11 12 1016.0 - -
24/08:29am 23.3 - - - - NNW 20 - 11 - - 1016.1 -
24/08:00am 23.2 - - - - NNW 20 22 11 12 1015.6 - -
24/07:30am 23.2 - - - - N 22 28 12 15 1015.3 - -
24/07:29am 23.2 - - - - N 24 - 13 - - 1015.4 -
24/07:00am 23.1 - - - - N 22 24 12 13 1015.0 - -
24/06:30am 22.9 - - - - N 22 26 12 14 1014.7 - -
24/06:29am 22.9 - - - - N 22 - 12 - - 1014.8 -
24/06:00am 22.9 - - - - N 20 24 11 13 1014.6 - -
24/05:30am 23.0 - - - - N 20 24 11 13 1014.2 - -
24/05:29am 22.9 - - - - N 22 - 12 - - 1014.3 -
24/05:00am 22.8 - - - - N 20 24 11 13 1013.9 - -
24/04:30am 22.8 - - - - N 24 26 13 14 1013.5 - -
24/04:29am 22.8 - - - - N 24 - 13 - - 1013.6 -
24/04:00am 22.8 - - - - N 22 26 12 14 1013.2 - -
24/03:30am 22.8 - - - - N 20 24 11 13 1013.2 - -
24/03:29am 22.8 - - - - N 19 - 10 - - 1013.3 -
24/03:00am 22.7 - - - - N 17 19 9 10 1013.3 - -
24/02:30am 22.8 - - - - N 15 17 8 9 1013.4 - -
24/02:29am 22.8 - - - - N 15 - 8 - - 1013.5 -
24/02:00am 22.8 - - - - NNW 15 17 8 9 1013.5 - -
24/01:30am 22.8 - - - - NNW 13 15 7 8 1013.7 - -
24/01:29am 22.8 - - - - NNW 13 - 7 - - 1013.8 -
24/01:00am 22.9 - - - - NNW 13 15 7 8 1013.8 - -
24/12:30am 22.9 - - - - NNW 15 17 8 9 1014.1 - -
24/12:29am 22.8 - - - - NNW 15 - 8 - - 1014.2 -
24/12:00am 22.8 - - - - NNW 15 17 8 9 1014.0 - -
 
Date/Time
EST
Temp
°C
App
Temp
°C
Dew
Point
°C
Rel
Hum
%
Delta-T
°C
Wind Press
QNH
hPa
Press
MSL
hPa
Rain since
9am
mm
Dir  Spd
km/h
Gust
km/h
Spd
kts
Gust
kts
23/11:30pm 22.9 - - - - NW 13 15 7 8 1014.0 - -
23/11:29pm 22.9 - - - - NW 13 - 7 - - 1014.1 -
23/11:00pm 22.9 - - - - NW 13 15 7 8 1014.2 - -
23/10:30pm 22.9 - - - - NNW 15 17 8 9 1014.2 - -
23/10:29pm 22.9 - - - - NNW 15 - 8 - - 1014.4 -
23/10:00pm 23.0 - - - - NW 17 19 9 10 1014.2 - -
23/09:30pm 23.0 - - - - WNW 15 19 8 10 1014.2 - -
23/09:29pm 23.0 - - - - WNW 15 - 8 - - 1014.3 -
23/09:00pm 23.1 - - - - WNW 15 17 8 9 1014.1 - -
23/08:30pm 23.1 - - - - NW 15 17 8 9 1013.8 - -
23/08:29pm 23.1 - - - - NW 15 - 8 - - 1013.9 -
23/08:00pm 23.2 - - - - WNW 15 17 8 9 1013.6 - -
23/07:30pm 23.3 - - - - W 15 17 8 9 1013.6 - -
23/07:29pm 23.3 - - - - W 17 - 9 - - 1013.7 -
23/07:00pm 23.3 - - - - WNW 15 17 8 9 1013.3 - -
23/06:30pm 23.4 - - - - WNW 17 19 9 10 1013.0 - -
23/06:29pm 23.4 - - - - WNW 17 - 9 - - 1013.1 -
23/06:00pm 23.4 - - - - WNW 19 20 10 11 1012.9 - -
23/05:30pm 23.4 - - - - WNW 19 20 10 11 1012.8 - -
23/05:29pm 23.4 - - - - WNW 19 - 10 - - 1012.9 -
23/05:00pm 23.6 - - - - WNW 19 20 10 11 1012.5 - -
23/04:30pm 23.7 - - - - WNW 19 20 10 11 1012.3 - -
23/04:29pm 23.7 - - - - WNW 19 - 10 - - 1012.4 -
23/04:00pm 23.7 - - - - NW 19 20 10 11 1012.3 - -
23/03:30pm 23.8 - - - - NW 19 20 10 11 1012.2 - -
23/03:29pm 23.8 - - - - NW 19 - 10 - - 1012.4 -
23/03:00pm 23.7 - - - - NW 19 22 10 12 1012.4 - -
23/02:30pm 23.7 - - - - NW 20 24 11 13 1012.6 - -
23/02:29pm 23.6 - - - - NW 20 - 11 - - 1012.7 -
23/02:00pm 23.7 - - - - NW 22 24 12 13 1012.9 - -
23/01:30pm 23.6 - - - - NW 20 24 11 13 1013.0 - -
23/01:29pm 23.6 - - - - NW 20 - 11 - - 1013.2 -
23/01:00pm 23.6 - - - - NW 19 20 10 11 1013.4 - -
23/12:30pm 23.6 - - - - NNW 19 22 10 12 1013.8 - -
23/12:29pm 23.6 - - - - NNW 19 - 10 - - 1013.9 -
23/12:00pm 23.5 - - - - N 19 20 10 11 1014.2 - -
23/11:30am 23.6 - - - - NNW 20 22 11 12 1014.5 - -
23/11:29am 23.6 - - - - NNW 19 - 10 - - 1014.6 -
23/11:00am 23.6 - - - - NNW 20 24 11 13 1014.7 - -
23/10:30am 23.5 - - - - N 19 24 10 13 1015.0 - -
23/10:29am 23.5 - - - - N 19 - 10 - - 1015.1 -
23/10:00am 23.6 - - - - N 19 20 10 11 1015.3 - -
23/09:30am 23.5 - - - - N 19 20 10 11 1015.5 - -
23/09:29am 23.6 - - - - N 19 - 10 - - 1015.6 -
23/09:00am 23.5 - - - - N 19 20 10 11 1015.6 - -
23/08:30am 23.4 - - - - N 17 19 9 10 1015.4 - -
23/08:29am 23.4 - - - - N 17 - 9 - - 1015.5 -
23/08:00am 23.3 - - - - N 19 20 10 11 1015.2 - -
23/07:30am 23.3 - - - - N 17 20 9 11 1015.0 - -
23/07:29am 23.4 - - - - N 17 - 9 - - 1015.1 -
23/07:00am 23.2 - - - - N 15 19 8 10 1014.8 - -
23/06:30am 22.6 - - - - N 7 9 4 5 1014.4 - -
23/06:29am 22.7 - - - - N 7 - 4 - - 1014.5 -
23/06:00am 22.5 - - - - N 7 9 4 5 1014.3 - -
23/05:30am 22.6 - - - - N 7 9 4 5 1013.9 - -
23/05:29am 22.6 - - - - N 7 - 4 - - 1014.0 -
23/05:00am 22.7 - - - - NW 9 11 5 6 1013.9 - -
23/04:30am 22.7 - - - - NW 9 11 5 6 1013.8 - -
23/04:29am 22.7 - - - - NW 9 - 5 - - 1013.8 -
23/04:00am 22.7 - - - - NNW 9 11 5 6 1013.6 - -
23/03:30am 22.8 - - - - N 9 11 5 6 1013.6 - -
23/03:29am 22.8 - - - - N 9 - 5 - - 1013.7 -
23/03:00am 22.9 - - - - N 9 11 5 6 1013.7 - -
23/02:30am 22.9 - - - - N 11 13 6 7 1013.8 - -
23/02:29am 22.9 - - - - N 11 - 6 - - 1013.9 -
23/02:00am 23.0 - - - - NNE 11 13 6 7 1014.0 - -
23/01:30am 23.0 - - - - N 13 15 7 8 1014.1 - -
23/01:29am 23.0 - - - - N 13 - 7 - - 1014.2 -
23/01:00am 22.9 - - - - NNE 13 17 7 9 1014.4 - -
23/12:30am 22.9 - - - - N 13 15 7 8 1014.6 - -
23/12:29am 22.8 - - - - N 13 - 7 - - 1014.7 -
23/12:00am 23.0 - - - - N 11 13 6 7 1014.7 - -
 
Date/Time
EST
Temp
°C
App
Temp
°C
Dew
Point
°C
Rel
Hum
%
Delta-T
°C
Wind Press
QNH
hPa
Press
MSL
hPa
Rain since
9am
mm
Dir  Spd
km/h
Gust
km/h
Spd
kts
Gust
kts
22/11:30pm 22.9 - - - - NNE 9 11 5 6 1014.7 - -
22/11:29pm 22.9 - - - - NNE 9 - 5 - - 1014.8 -
22/11:00pm 22.5 - - - - ENE 7 9 4 5 1014.9 - -
22/10:30pm 22.5 - - - - E 7 9 4 5 1015.0 - -
22/10:29pm 22.5 - - - - E 7 - 4 - - 1015.1 -
22/10:00pm 22.5 - - - - ENE 9 9 5 5 1015.0 - -
22/09:30pm 22.6 - - - - ENE 7 9 4 5 1014.9 - -
22/09:29pm 22.6 - - - - ENE 7 - 4 - - 1015.0 -
22/09:00pm 22.6 - - - - ENE 7 7 4 4 1014.9 - -
22/08:30pm 22.6 - - - - E 6 9 3 5 1014.9 - -
22/08:29pm 22.6 - - - - E 7 - 4 - - 1015.0 -
22/08:00pm 22.6 - - - - E 7 9 4 5 1015.0 - -
22/07:30pm 22.4 - - - - E 6 7 3 4 1015.0 - -
22/07:29pm 22.4 - - - - E 6 - 3 - - 1015.1 -
22/07:00pm 22.5 - - - - E 6 7 3 4 1014.9 - -
22/06:30pm 22.6 - - - - E 6 7 3 4 1014.7 - -
22/06:29pm 22.6 - - - - E 6 - 3 - - 1014.8 -
22/06:00pm 22.7 - - - - ESE 7 7 4 4 1014.5 - -
22/05:30pm 23.0 - - - - ESE 7 9 4 5 1014.4 - -
22/05:29pm 23.1 - - - - E 7 - 4 - - 1014.5 -
22/05:00pm 24.0 - - - - ENE 6 9 3 5 1014.4 - -
22/04:30pm 24.4 - - - - NNE 7 9 4 5 1014.1 - -
22/04:29pm 24.5 - - - - NE 7 - 4 - - 1014.2 -
22/04:00pm 24.5 - - - - ENE 7 11 4 6 1013.9 - -
22/03:30pm 24.4 - - - - ENE 7 11 4 6 1013.9 - -
22/03:29pm 24.3 - - - - E 9 - 5 - - 1014.0 -
22/03:00pm 24.2 - - - - ESE 9 11 5 6 1013.9 - -
22/02:30pm 24.5 - - - - E 7 9 4 5 1013.9 - -
22/02:29pm 24.3 - - - - E 7 - 4 - - 1014.0 -
22/02:00pm 24.7 - - - - NE 7 9 4 5 1014.1 - -
22/01:30pm 24.4 - - - - E 7 11 4 6 1014.3 - -
22/01:29pm 24.4 - - - - ESE 9 - 5 - - 1014.5 -
22/01:00pm 24.6 - - - - SE 9 11 5 6 1014.8 - -
22/12:30pm 24.1 - - - - ENE 7 9 4 5 1015.1 - -
22/12:29pm 24.1 - - - - E 7 - 4 - - 1015.2 -
22/12:00pm 24.1 - - - - ENE 7 9 4 5 1015.4 - -
22/11:30am 23.7 - - - - ENE 7 9 4 5 1015.7 - -
22/11:29am 23.7 - - - - ENE 7 - 4 - - 1015.8 -
22/11:00am 23.7 - - - - E 11 13 6 7 1016.1 - -
22/10:30am 23.6 - - - - ESE 11 15 6 8 1016.5 - -
22/10:29am 23.6 - - - - E 11 - 6 - - 1016.6 -
22/10:00am 23.5 - - - - ESE 13 15 7 8 1016.8 - -
22/09:30am 23.4 - - - - ESE 13 15 7 8 1017.0 - -
22/09:29am 23.5 - - - - E 13 - 7 - - 1017.1 -
22/09:00am 23.3 - - - - E 13 15 7 8 1017.0 - -
22/08:30am 23.2 - - - - ESE 13 13 7 7 1016.9 - -
22/08:29am 23.2 - - - - ESE 13 - 7 - - 1017.0 -
22/08:00am 23.3 - - - - E 13 15 7 8 1016.7 - -
22/07:30am 23.2 - - - - E 13 15 7 8 1016.6 - -
22/07:29am 23.1 - - - - E 13 - 7 - - 1016.7 -
22/07:00am 22.6 - - - - ESE 13 15 7 8 1016.5 - -
22/06:30am 22.3 - - - - ESE 15 17 8 9 1016.4 - -
22/06:29am 22.3 - - - - ESE 15 - 8 - - 1016.5 -
22/06:00am 22.3 - - - - ESE 13 17 7 9 1016.2 - -
22/05:30am 22.4 - - - - SE 15 15 8 8 1016.0 - -
22/05:29am 22.3 - - - - SE 13 - 7 - - 1016.1 -
22/05:00am 22.4 - - - - SE 13 15 7 8 1015.8 - -
22/04:30am 22.4 - - - - ESE 15 17 8 9 1015.7 - -
22/04:29am 22.4 - - - - ESE 15 - 8 - - 1015.8 -
22/04:00am 22.5 - - - - ESE 15 15 8 8 1015.8 - -
22/03:30am 22.4 - - - - ESE 13 17 7 9 1015.9 - -
22/03:29am 22.5 - - - - ESE 13 - 7 - - 1016.0 -
22/03:00am 22.4 - - - - E 13 15 7 8 1016.1 - -
22/02:30am 22.3 - - - - ESE 13 15 7 8 1016.2 - -
22/02:29am 22.3 - - - - ESE 13 - 7 - - 1016.3 -

Other Formats:

Comma delimited format used in spreadsheet applications
http://www.bom.gov.au/fwo/IDQ60801/IDQ60801.94379.axf

JavaScript Object Notation format (JSON) in row-major order
http://www.bom.gov.au/fwo/IDQ60801/IDQ60801.94379.json